createdAt,value
2018-06-08T00:01:55.728Z,89.88
2018-06-08T00:04:28.341Z,89.72
2018-06-08T00:07:01.044Z,89.35
2018-06-08T00:09:34.934Z,89.32
2018-06-08T00:12:07.963Z,89.37
2018-06-08T00:14:40.604Z,89.48
2018-06-08T00:17:14.921Z,89.58
2018-06-08T00:19:48.221Z,89.51
2018-06-08T00:22:27.320Z,89.43
2018-06-08T00:25:00.569Z,89.55
2018-06-08T00:27:33.051Z,89.56
2018-06-08T00:30:11.056Z,89.61
2018-06-08T00:32:45.769Z,89.56
2018-06-08T00:35:24.627Z,89.57
2018-06-08T00:37:58.073Z,89.74
2018-06-08T00:40:31.481Z,89.75
2018-06-08T00:43:06.699Z,89.61
2018-06-08T00:45:42.072Z,89.60
2018-06-08T00:48:14.847Z,89.68
2018-06-08T00:50:47.969Z,89.64
2018-06-08T00:53:20.540Z,89.54
2018-06-08T00:55:53.968Z,89.66
2018-06-08T00:58:27.992Z,89.75
2018-06-08T01:03:33.695Z,89.42
2018-06-08T01:06:08.223Z,89.40
2018-06-08T01:08:40.975Z,89.42
2018-06-08T01:11:14.008Z,89.41
2018-06-08T01:13:46.973Z,89.46
2018-06-08T01:16:20.534Z,89.67
2018-06-08T01:18:54.056Z,90.09
2018-06-08T01:21:27.129Z,90.06
2018-06-08T01:23:59.699Z,89.97
2018-06-08T01:26:32.261Z,89.87
2018-06-08T01:29:05.561Z,89.93
2018-06-08T01:31:38.492Z,89.99
2018-06-08T01:34:11.598Z,90.40
2018-06-08T01:36:44.444Z,90.60
2018-06-08T01:39:17.328Z,90.57
2018-06-08T01:41:52.773Z,90.35
2018-06-08T01:44:25.868Z,90.46
2018-06-08T01:46:59.544Z,90.33
2018-06-08T01:49:31.964Z,90.42
2018-06-08T01:52:04.791Z,90.39
2018-06-08T01:54:37.403Z,90.39
2018-06-08T01:57:10.113Z,90.58
2018-06-08T01:59:43.043Z,90.55
2018-06-08T02:02:15.900Z,90.56
2018-06-08T02:04:49.765Z,90.58
2018-06-08T02:07:23.358Z,90.64
2018-06-08T02:09:55.978Z,90.69
2018-06-08T02:12:28.568Z,90.62
2018-06-08T02:15:04.609Z,90.58
2018-06-08T02:17:37.424Z,90.56
2018-06-08T02:20:09.999Z,90.45
2018-06-08T02:22:42.877Z,90.57
2018-06-08T02:25:15.569Z,90.68
2018-06-08T02:27:48.236Z,90.71
2018-06-08T02:30:22.047Z,90.76
2018-06-08T02:32:54.714Z,90.79
2018-06-08T02:35:27.477Z,90.70
2018-06-08T02:38:00.942Z,90.74
2018-06-08T02:40:34.733Z,90.76
2018-06-08T02:43:08.054Z,90.75
2018-06-08T02:45:40.769Z,90.66
2018-06-08T02:48:14.413Z,90.63
2018-06-08T02:50:47.030Z,90.87
2018-06-08T02:53:21.105Z,90.96
2018-06-08T02:55:53.586Z,90.74
2018-06-08T02:58:26.414Z,90.75
2018-06-08T03:00:59.193Z,91.03
2018-06-08T03:03:31.889Z,91.17
2018-06-08T03:06:04.350Z,91.08
2018-06-08T03:08:37.145Z,91.09
2018-06-08T03:11:09.673Z,91.27
2018-06-08T03:13:43.691Z,91.28
2018-06-08T03:16:17.222Z,91.02
2018-06-08T03:18:50.329Z,90.89
2018-06-08T03:21:23.384Z,91.06
2018-06-08T03:23:56.303Z,91.24
2018-06-08T03:26:29.572Z,91.06
2018-06-08T03:29:05.909Z,90.76
2018-06-08T03:31:38.492Z,90.73
2018-06-08T03:34:11.102Z,90.89
2018-06-08T03:36:43.640Z,90.93
2018-06-08T03:39:17.216Z,90.94
2018-06-08T03:41:50.012Z,90.98
2018-06-08T03:44:25.696Z,91.01
2018-06-08T03:46:59.830Z,91.15
2018-06-08T03:49:33.408Z,91.00
2018-06-08T03:52:06.057Z,90.95
2018-06-08T03:54:39.109Z,91.08
2018-06-08T03:57:11.660Z,91.14
2018-06-08T03:59:45.297Z,91.13
2018-06-08T04:02:18.188Z,91.11
2018-06-08T04:04:53.447Z,91.08
2018-06-08T04:07:27.554Z,91.00
2018-06-08T04:10:01.603Z,91.02
2018-06-08T04:12:34.761Z,90.98
2018-06-08T04:15:07.323Z,90.93
2018-06-08T04:17:40.220Z,90.93
2018-06-08T04:20:12.628Z,90.90
2018-06-08T04:22:45.424Z,90.82
2018-06-08T04:25:18.515Z,90.81
2018-06-08T04:27:51.541Z,90.75
2018-06-08T04:30:24.874Z,90.87
2018-06-08T04:32:58.477Z,90.79
2018-06-08T04:35:32.328Z,90.72
2018-06-08T04:38:06.813Z,90.44
2018-06-08T04:40:39.381Z,90.32
2018-06-08T04:43:12.290Z,90.31
2018-06-08T04:45:45.397Z,90.21
2018-06-08T04:48:18.013Z,89.77
2018-06-08T04:50:50.476Z,89.72
2018-06-08T04:53:24.500Z,89.79
2018-06-08T04:55:57.127Z,89.75
2018-06-08T04:58:30.396Z,89.72
2018-06-08T05:01:03.301Z,89.70
2018-06-08T05:03:37.086Z,89.56
2018-06-08T05:06:09.606Z,89.41
2018-06-08T05:08:42.496Z,89.29
2018-06-08T05:11:14.982Z,89.37
2018-06-08T05:13:49.711Z,89.36
2018-06-08T05:16:23.368Z,89.30
2018-06-08T05:18:57.260Z,89.35
2018-06-08T05:21:30.430Z,89.26
2018-06-08T05:24:03.696Z,89.24
2018-06-08T05:26:37.456Z,88.92
2018-06-08T05:29:10.515Z,88.82
2018-06-08T05:31:43.198Z,88.86
2018-06-08T05:34:16.731Z,89.00
2018-06-08T05:36:49.795Z,88.72
2018-06-08T05:41:48.090Z,88.59
2018-06-08T05:44:21.898Z,87.91
2018-06-08T05:46:55.247Z,87.52
2018-06-08T05:49:28.563Z,87.35
2018-06-08T05:52:01.223Z,87.11
2018-06-08T05:54:34.266Z,87.10
2018-06-08T05:57:06.824Z,86.79
2018-06-08T05:59:39.747Z,86.79
2018-06-08T06:02:15.599Z,86.07
2018-06-08T06:04:49.356Z,85.91
2018-06-08T06:07:22.252Z,85.97
2018-06-08T06:09:55.356Z,85.60
2018-06-08T06:12:29.587Z,84.91
2018-06-08T06:15:06.750Z,84.05
2018-06-08T06:17:42.438Z,83.48
2018-06-08T06:20:17.789Z,82.36
2018-06-08T06:22:53.320Z,82.84
2018-06-08T06:25:26.928Z,81.91
2018-06-08T06:27:59.400Z,81.11
2018-06-08T06:30:32.196Z,80.40
2018-06-08T06:33:05.787Z,78.96
2018-06-08T06:35:39.454Z,79.37
2018-06-08T06:38:12.297Z,79.96
2018-06-08T06:40:45.279Z,79.07
2018-06-08T06:43:17.719Z,78.90
2018-06-08T06:45:50.065Z,77.76
2018-06-08T06:48:23.739Z,77.74
2018-06-08T06:50:56.133Z,76.60
2018-06-08T06:53:28.466Z,76.10
2018-06-08T06:56:01.974Z,76.28
2018-06-08T06:58:34.964Z,76.76
2018-06-08T07:01:08.013Z,76.56
2018-06-08T07:03:43.284Z,75.99
2018-06-08T07:06:15.848Z,76.90
2018-06-08T07:08:48.416Z,75.85
2018-06-08T07:11:21.208Z,75.45
2018-06-08T07:13:57.289Z,73.71
2018-06-08T07:16:29.948Z,72.70
2018-06-08T07:19:02.871Z,73.58
2018-06-08T07:21:37.350Z,73.82
2018-06-08T07:24:11.450Z,73.12
2018-06-08T07:26:47.764Z,73.64
2018-06-08T07:29:39.809Z,71.98
2018-06-08T07:32:13.148Z,71.29
2018-06-08T07:34:48.212Z,70.15
2018-06-08T07:37:21.099Z,70.41
2018-06-08T07:39:56.375Z,69.75
2018-06-08T07:42:29.061Z,68.20
2018-06-08T07:45:04.071Z,68.56
2018-06-08T07:47:37.089Z,67.06
2018-06-08T07:50:09.685Z,67.32
2018-06-08T07:52:44.314Z,66.86
2018-06-08T07:55:17.057Z,65.27
2018-06-08T07:57:52.534Z,64.24
2018-06-08T08:00:26.538Z,64.21
2018-06-08T08:03:00.197Z,65.33
2018-06-08T08:05:32.911Z,66.63
2018-06-08T08:08:07.195Z,66.63
2018-06-08T08:10:39.818Z,67.11
2018-06-08T08:13:13.417Z,67.69
2018-06-08T08:15:49.363Z,69.49
2018-06-08T08:18:22.860Z,70.17
2018-06-08T08:20:55.421Z,70.42
2018-06-08T08:23:33.320Z,70.56
2018-06-08T08:26:08.260Z,70.45
2018-06-08T08:28:46.096Z,70.22
2018-06-08T08:31:18.777Z,69.99
2018-06-08T08:33:52.771Z,69.96
2018-06-08T08:36:29.414Z,68.66
2018-06-08T08:39:05.213Z,67.93
2018-06-08T08:41:39.087Z,68.23
2018-06-08T08:44:12.597Z,67.66
2018-06-08T08:46:47.932Z,67.58
2018-06-08T08:49:24.248Z,68.11
2018-06-08T08:51:58.086Z,67.13
2018-06-08T08:54:32.332Z,67.25
2018-06-08T08:57:06.212Z,66.84
2018-06-08T08:59:43.875Z,65.36
2018-06-08T09:02:17.598Z,65.50
2018-06-08T09:04:52.479Z,66.36
2018-06-08T09:07:26.767Z,66.42
2018-06-08T09:10:00.837Z,66.63
2018-06-08T09:12:33.992Z,67.98
2018-06-08T09:15:06.738Z,69.04
2018-06-08T09:17:39.822Z,69.32
2018-06-08T09:20:14.515Z,68.90
2018-06-08T09:22:51.025Z,70.52
2018-06-08T09:25:24.776Z,71.72
2018-06-08T09:27:58.001Z,72.24
2018-06-08T09:30:30.534Z,73.19
2018-06-08T09:33:03.418Z,74.45
2018-06-08T09:35:37.835Z,75.88
2018-06-08T09:38:11.686Z,77.14
2018-06-08T09:40:49.288Z,77.67
2018-06-08T09:43:24.728Z,78.91
2018-06-08T09:45:59.812Z,79.83
2018-06-08T09:48:33.110Z,80.23
2018-06-08T09:51:06.711Z,80.99
2018-06-08T09:53:47.236Z,82.08
2018-06-08T09:56:25.926Z,83.28
2018-06-08T09:59:07.106Z,83.86
2018-06-08T10:01:48.269Z,84.59
2018-06-08T10:04:30.311Z,85.54
2018-06-08T10:07:04.973Z,85.69
2018-06-08T10:09:37.492Z,86.11
2018-06-08T10:12:11.788Z,86.08
2018-06-08T10:14:48.157Z,86.20
2018-06-08T10:17:21.697Z,86.57
2018-06-08T10:19:58.116Z,86.94
2018-06-08T10:22:31.360Z,86.89
2018-06-08T10:25:06.197Z,87.18
2018-06-08T10:27:39.241Z,87.51
2018-06-08T10:30:13.664Z,88.33
2018-06-08T10:32:47.712Z,88.29
2018-06-08T10:35:20.603Z,88.33
2018-06-08T10:37:56.454Z,88.78
2018-06-08T10:40:31.016Z,88.77
2018-06-08T10:43:06.255Z,88.77
2018-06-08T10:45:39.881Z,88.72
2018-06-08T10:48:30.568Z,88.95
2018-06-08T10:51:04.643Z,89.07
2018-06-08T10:53:39.324Z,89.20
2018-06-08T10:56:13.597Z,89.12
2018-06-08T10:58:48.031Z,89.36
2018-06-08T11:01:22.171Z,89.38
2018-06-08T11:03:58.137Z,89.18
2018-06-08T11:06:42.725Z,89.10
2018-06-08T11:09:16.275Z,89.34
2018-06-08T11:11:49.100Z,88.84
2018-06-08T11:14:23.581Z,88.82
2018-06-08T11:17:00.827Z,88.40
2018-06-08T11:19:35.840Z,88.31
2018-06-08T11:22:10.257Z,87.82
2018-06-08T11:24:44.703Z,87.42
2018-06-08T11:27:18.602Z,87.25
2018-06-08T11:29:59.197Z,86.75
2018-06-08T11:32:33.707Z,86.31
2018-06-08T11:35:07.156Z,85.86
2018-06-08T11:37:43.810Z,85.30
2018-06-08T11:40:19.428Z,84.64
2018-06-08T11:42:59.968Z,85.02
2018-06-08T11:45:36.082Z,84.52
2018-06-08T11:48:09.803Z,84.17
2018-06-08T11:50:45.224Z,84.62
2018-06-08T11:53:18.701Z,85.18
2018-06-08T11:55:58.028Z,85.58
2018-06-08T11:58:32.531Z,85.92
2018-06-08T12:01:07.443Z,85.07
2018-06-08T12:03:40.012Z,83.92
2018-06-08T12:06:26.387Z,82.66
2018-06-08T12:09:08.845Z,82.07
2018-06-08T12:11:43.590Z,80.79
2018-06-08T12:14:17.183Z,80.96
2018-06-08T12:16:49.723Z,79.60
2018-06-08T12:19:22.765Z,79.78
2018-06-08T12:21:56.846Z,80.41
2018-06-08T12:24:29.613Z,79.53
2018-06-08T12:27:06.900Z,79.75
2018-06-08T12:29:43.957Z,79.48
2018-06-08T12:32:27.716Z,78.45
2018-06-08T12:35:06.867Z,74.89
2018-06-08T12:37:45.107Z,74.72
2018-06-08T12:40:18.445Z,73.96
2018-06-08T12:42:53.291Z,74.92
2018-06-08T12:45:30.572Z,75.29
2018-06-08T12:48:06.544Z,73.73
2018-06-08T12:50:41.288Z,74.09
2018-06-08T12:53:14.713Z,70.84
2018-06-08T12:55:48.723Z,68.93
2018-06-08T12:58:22.558Z,67.57
2018-06-08T13:00:59.199Z,68.08
2018-06-08T13:03:35.192Z,65.95
2018-06-08T13:06:09.021Z,64.36
2018-06-08T13:08:42.956Z,63.59
2018-06-08T13:11:23.671Z,60.04
2018-06-08T13:13:57.909Z,59.72
2018-06-08T13:16:32.385Z,60.45
2018-06-08T13:19:05.823Z,60.53
2018-06-08T13:21:40.809Z,59.88
2018-06-08T13:24:18.949Z,60.46
2018-06-08T13:26:54.366Z,60.91
2018-06-08T13:29:29.018Z,60.42
2018-06-08T13:32:02.841Z,60.71
2018-06-08T13:34:38.948Z,59.35
2018-06-08T13:37:21.250Z,58.23
2018-06-08T13:39:56.623Z,57.17
2018-06-08T13:42:39.354Z,56.51
2018-06-08T13:45:18.504Z,55.78
2018-06-08T13:47:54.773Z,56.48
2018-06-08T13:50:29.309Z,56.54
2018-06-08T13:53:08.031Z,56.55
2018-06-08T13:55:42.942Z,57.33
2018-06-08T13:58:21.704Z,56.65
2018-06-08T14:00:55.592Z,56.67
2018-06-08T14:03:32.772Z,54.36
2018-06-08T14:06:14.410Z,53.93
2018-06-08T14:08:50.502Z,51.65
2018-06-08T14:11:29.864Z,49.97
2018-06-08T14:14:06.580Z,47.21
2018-06-08T14:16:42.686Z,47.48
2018-06-08T14:19:22.004Z,48.52
2018-06-08T14:21:54.998Z,49.53
2018-06-08T14:24:31.356Z,50.63
2018-06-08T14:27:05.901Z,52.36
2018-06-08T14:29:48.552Z,52.92
2018-06-08T14:32:26.959Z,52.49
2018-06-08T14:35:01.039Z,53.18
2018-06-08T14:37:35.836Z,52.10
2018-06-08T14:40:09.219Z,51.13
2018-06-08T14:42:42.765Z,49.98
2018-06-08T14:45:27.628Z,50.56
2018-06-08T14:48:03.275Z,50.69
2018-06-08T14:50:37.701Z,52.47
2018-06-08T14:53:28.199Z,53.19
2018-06-08T14:56:06.472Z,54.85
2018-06-08T14:58:49.391Z,55.72
2018-06-08T15:01:26.824Z,55.99
2018-06-08T15:04:10.163Z,53.57
2018-06-08T15:06:44.417Z,53.56
2018-06-08T15:09:29.772Z,53.48
2018-06-08T15:12:04.687Z,55.50
2018-06-08T15:14:37.808Z,55.05
2018-06-08T15:17:11.225Z,54.80
2018-06-08T15:19:46.546Z,55.64
2018-06-08T15:22:26.957Z,56.50
2018-06-08T15:25:02.079Z,57.70
2018-06-08T15:27:40.018Z,59.09
2018-06-08T15:30:14.708Z,59.75
2018-06-08T15:32:47.465Z,59.84
2018-06-08T15:35:25.373Z,59.78
2018-06-08T15:37:59.173Z,60.51
2018-06-08T15:40:41.954Z,58.93
2018-06-08T15:43:16.025Z,59.31
2018-06-08T15:45:50.757Z,58.03
2018-06-08T15:48:32.108Z,57.96
2018-06-08T15:51:07.488Z,58.59
2018-06-08T15:53:40.615Z,59.75
2018-06-08T15:56:15.054Z,60.41
2018-06-08T15:58:49.611Z,61.10
2018-06-08T16:01:22.406Z,61.49
2018-06-08T16:03:58.848Z,61.61
2018-06-08T16:06:39.074Z,61.93
2018-06-08T16:09:12.323Z,62.46
2018-06-08T16:11:45.289Z,62.52
2018-06-08T16:14:19.447Z,62.33
2018-06-08T16:16:53.772Z,61.88
2018-06-08T16:19:37.196Z,60.36
2018-06-08T16:22:11.283Z,60.51
2018-06-08T16:24:46.092Z,60.08
2018-06-08T16:27:21.388Z,58.70
2018-06-08T16:29:57.148Z,58.31
2018-06-08T16:32:37.653Z,58.07
2018-06-08T16:35:11.344Z,57.68
2018-06-08T16:37:47.019Z,57.39
2018-06-08T16:40:29.981Z,57.78
2018-06-08T16:43:04.232Z,57.79
2018-06-08T16:45:38.683Z,58.89
2018-06-08T16:48:12.256Z,59.34
2018-06-08T16:50:47.283Z,59.67
2018-06-08T16:53:27.627Z,59.35
2018-06-08T16:56:02.220Z,59.57
2018-06-08T16:58:38.619Z,59.95
2018-06-08T17:01:11.105Z,59.30
2018-06-08T17:03:44.709Z,59.32
2018-06-08T17:06:19.652Z,58.68
2018-06-08T17:08:52.132Z,58.56
2018-06-08T17:11:34.654Z,58.28
2018-06-08T17:14:08.502Z,58.13
2018-06-08T17:16:48.401Z,58.42
2018-06-08T17:19:22.553Z,58.36
2018-06-08T17:22:01.961Z,58.49
2018-06-08T17:24:39.883Z,58.56
2018-06-08T17:27:20.256Z,58.46
2018-06-08T17:29:57.316Z,58.34
2018-06-08T17:32:42.084Z,58.40
2018-06-08T17:35:17.226Z,58.98
2018-06-08T17:37:52.395Z,59.68
2018-06-08T17:40:39.757Z,60.04
2018-06-08T17:43:25.150Z,60.98
2018-06-08T17:46:04.772Z,61.91
2018-06-08T17:48:43.957Z,62.74
2018-06-08T17:51:21.676Z,63.66
2018-06-08T17:54:00.931Z,64.64
2018-06-08T17:56:35.984Z,65.60
2018-06-08T17:59:14.028Z,66.45
2018-06-08T18:01:51.957Z,66.26
2018-06-08T18:04:29.787Z,66.49
2018-06-08T18:07:08.487Z,66.62
2018-06-08T18:09:44.096Z,66.88
2018-06-08T18:12:17.345Z,67.33
2018-06-08T18:14:52.789Z,67.78
2018-06-08T18:17:26.907Z,67.84
2018-06-08T18:20:07.548Z,68.14
2018-06-08T18:22:44.667Z,67.91
2018-06-08T18:25:21.832Z,68.45
2018-06-08T18:28:04.060Z,69.15
2018-06-08T18:30:38.791Z,69.49
2018-06-08T18:33:14.767Z,69.53
2018-06-08T18:36:10.517Z,69.87
2018-06-08T18:38:45.866Z,70.38
2018-06-08T18:41:21.032Z,70.67
2018-06-08T18:43:59.839Z,70.97
2018-06-08T18:46:36.061Z,71.18
2018-06-08T18:49:17.945Z,71.50
2018-06-08T18:51:59.842Z,71.46
2018-06-08T18:55:00.318Z,71.12
2018-06-08T18:57:35.468Z,71.45
2018-06-08T19:00:08.132Z,71.74
2018-06-08T19:02:42.420Z,71.77
2018-06-08T19:05:17.109Z,71.96
2018-06-08T19:07:59.884Z,72.60
2018-06-08T19:10:39.751Z,72.69
2018-06-08T19:23:15.248Z,75.17
2018-06-08T19:25:54.135Z,75.81
2018-06-08T19:28:28.725Z,76.11
2018-06-08T19:31:02.552Z,76.65
2018-06-08T19:33:36.578Z,77.20
2018-06-08T19:36:09.285Z,77.46
2018-06-08T19:38:43.600Z,77.87
2018-06-08T19:41:20.842Z,78.57
2018-06-08T19:44:05.965Z,79.02
2018-06-08T19:46:42.174Z,79.43
2018-06-08T19:49:17.870Z,79.82
2018-06-08T19:51:55.415Z,80.17
2018-06-08T19:54:29.325Z,80.63
2018-06-08T19:57:08.768Z,80.86
2018-06-08T19:59:48.073Z,80.92
2018-06-08T20:02:24.998Z,81.14
2018-06-08T20:05:03.829Z,81.75
2018-06-08T20:07:44.429Z,82.08
2018-06-08T20:10:19.319Z,81.94
2018-06-08T20:12:52.765Z,82.15
2018-06-08T20:15:27.997Z,82.22
2018-06-08T20:18:27.046Z,82.67
2018-06-08T20:21:06.281Z,82.70
2018-06-08T20:23:41.249Z,82.93
2018-06-08T20:26:17.424Z,83.35
2018-06-08T20:28:52.110Z,83.50
2018-06-08T20:31:27.457Z,83.92
2018-06-08T20:34:10.421Z,83.95
2018-06-08T20:36:45.469Z,84.07
2018-06-08T20:39:23.112Z,84.01
2018-06-08T20:41:58.838Z,84.54
2018-06-08T20:44:34.321Z,84.55
2018-06-08T20:47:13.110Z,84.67
2018-06-08T20:50:10.007Z,84.50
2018-06-08T20:52:48.540Z,84.32
2018-06-08T20:55:32.141Z,84.31
2018-06-08T20:58:26.473Z,84.34
2018-06-08T21:01:12.849Z,84.41
2018-06-08T21:03:51.200Z,84.40
2018-06-08T21:06:30.806Z,84.44
2018-06-08T21:09:12.137Z,84.81
2018-06-08T21:11:50.549Z,85.22
2018-06-08T21:14:28.424Z,85.34
2018-06-08T21:17:04.450Z,85.32
2018-06-08T21:19:42.540Z,85.14
2018-06-08T21:22:23.673Z,85.37
2018-06-08T21:24:58.615Z,85.69
2018-06-08T21:27:51.886Z,85.86
2018-06-08T21:30:39.826Z,85.94
2018-06-08T21:33:18.381Z,85.89
2018-06-08T21:35:55.671Z,85.74
2018-06-08T21:38:31.863Z,85.58
2018-06-08T21:41:16.044Z,85.51
2018-06-08T21:44:01.446Z,85.52
2018-06-08T21:46:35.125Z,85.59
2018-06-08T21:49:11.356Z,85.53
2018-06-08T21:51:54.498Z,85.74
2018-06-08T21:54:28.806Z,85.91
2018-06-08T21:57:04.480Z,86.03
2018-06-08T21:59:37.026Z,86.17
2018-06-08T22:02:11.914Z,86.65
2018-06-08T22:04:46.182Z,86.80
2018-06-08T22:07:21.901Z,86.99
2018-06-08T22:10:02.256Z,87.24
2018-06-08T22:12:40.855Z,87.19
2018-06-08T22:15:16.509Z,87.07
2018-06-08T22:17:51.623Z,87.08
2018-06-08T22:20:26.457Z,87.10
2018-06-08T22:22:59.953Z,87.12
2018-06-08T22:25:33.126Z,87.35
2018-06-08T22:28:06.090Z,87.65
2018-06-08T22:30:39.688Z,87.71
2018-06-08T22:33:15.629Z,87.70
2018-06-08T22:35:50.288Z,88.12
2018-06-08T22:38:27.686Z,88.33
2018-06-08T22:41:10.474Z,88.51
2018-06-08T22:45:13.121Z,88.96
2018-06-08T22:47:47.134Z,89.53
2018-06-08T22:50:21.508Z,89.44
2018-06-08T22:52:57.301Z,89.41
2018-06-08T22:55:30.598Z,89.14
2018-06-08T22:58:06.309Z,89.20
2018-06-08T23:00:39.926Z,89.35
2018-06-08T23:03:14.172Z,89.57
2018-06-08T23:05:49.025Z,89.52
2018-06-08T23:08:25.878Z,89.45
2018-06-08T23:11:00.078Z,89.45
2018-06-08T23:13:34.078Z,89.93
2018-06-08T23:16:10.694Z,89.82
2018-06-08T23:18:44.967Z,89.84
2018-06-08T23:21:19.009Z,90.04
2018-06-08T23:23:54.296Z,90.19
2018-06-08T23:26:28.141Z,90.44
2018-06-08T23:29:03.392Z,90.41
2018-06-08T23:31:36.993Z,90.21
2018-06-08T23:34:09.792Z,89.97
2018-06-08T23:36:46.002Z,90.06
2018-06-08T23:39:20.512Z,90.14
2018-06-08T23:41:54.285Z,90.22
2018-06-08T23:44:28.981Z,90.22
2018-06-08T23:47:03.644Z,90.33
2018-06-08T23:49:36.384Z,90.15
2018-06-08T23:52:12.201Z,90.36
2018-06-08T23:54:45.741Z,90.82
2018-06-08T23:57:19.946Z,90.92
2018-06-08T23:59:57.045Z,90.74
